Malta, Brazil
Current Conditions -  °F | °C
As of 2:00 AM on Saturday 25 Oct 2014 (Local Time) from SBKG Reporting Station
Haze Haze  
Wind Chill: 68°   Ceiling: 700
Heat Index: 68°   Visibility: 2.5mi
Dew Point: 68°   Wind: 8mph
Humidity: 100%   Direction: 100°E
Pressure: 29.94"   Gusts: NA
Location:  6.9°S, 37.52°W
Report Text: SBKG 250500Z 10007KT 4000 BR BKN007 BKN010 20/20 Q1014
Loading
Personal Weather Stations






























Interactive Weather Map
Tropical Storm Tracking
New forecast layout! Learn more

10-Day Weather Forecast

Advertisements
Track Severe Weather on mobile